sensor_id;sensor_type;location;lat;lon;timestamp;P1;durP1;ratioP1;P2;durP2;ratioP2
62037;SDS011;47991;42.974;12.082;2022-12-18T00:01:36;2.80;;;1.60;;
62037;SDS011;47991;42.974;12.082;2022-12-18T00:04:05;9.50;;;2.30;;
62037;SDS011;47991;42.974;12.082;2022-12-18T00:06:34;4.80;;;1.90;;
62037;SDS011;47991;42.974;12.082;2022-12-18T00:09:02;5.80;;;2.50;;
62037;SDS011;47991;42.974;12.082;2022-12-18T00:11:30;10.80;;;2.50;;
62037;SDS011;47991;42.974;12.082;2022-12-18T00:13:59;7.20;;;2.70;;
62037;SDS011;47991;42.974;12.082;2022-12-18T00:16:27;6.90;;;2.30;;
62037;SDS011;47991;42.974;12.082;2022-12-18T00:18:56;7.20;;;2.40;;
62037;SDS011;47991;42.974;12.082;2022-12-18T00:21:24;7.40;;;2.10;;
62037;SDS011;47991;42.974;12.082;2022-12-18T00:23:53;7.60;;;2.50;;
62037;SDS011;47991;42.974;12.082;2022-12-18T00:26:25;5.00;;;2.40;;
62037;SDS011;47991;42.974;12.082;2022-12-18T00:29:00;10.80;;;3.10;;
62037;SDS011;47991;42.974;12.082;2022-12-18T00:31:31;8.00;;;3.10;;
62037;SDS011;47991;42.974;12.082;2022-12-18T00:34:00;10.50;;;3.30;;
62037;SDS011;47991;42.974;12.082;2022-12-18T00:36:29;5.10;;;2.00;;
62037;SDS011;47991;42.974;12.082;2022-12-18T00:38:59;5.30;;;2.40;;
62037;SDS011;47991;42.974;12.082;2022-12-18T00:41:28;5.80;;;2.00;;
62037;SDS011;47991;42.974;12.082;2022-12-18T00:44:16;5.60;;;1.80;;
62037;SDS011;47991;42.974;12.082;2022-12-18T00:46:46;8.40;;;2.00;;
62037;SDS011;47991;42.974;12.082;2022-12-18T00:49:16;6.40;;;2.20;;
62037;SDS011;47991;42.974;12.082;2022-12-18T00:51:45;6.30;;;2.40;;
62037;SDS011;47991;42.974;12.082;2022-12-18T00:54:13;6.90;;;2.40;;
62037;SDS011;47991;42.974;12.082;2022-12-18T00:56:41;4.40;;;2.00;;
62037;SDS011;47991;42.974;12.082;2022-12-18T00:59:08;6.10;;;2.60;;
62037;SDS011;47991;42.974;12.082;2022-12-18T01:01:36;9.00;;;2.90;;
62037;SDS011;47991;42.974;12.082;2022-12-18T01:04:05;7.80;;;2.70;;
62037;SDS011;47991;42.974;12.082;2022-12-18T01:06:32;11.50;;;3.20;;
62037;SDS011;47991;42.974;12.082;2022-12-18T01:09:00;10.10;;;2.90;;
62037;SDS011;47991;42.974;12.082;2022-12-18T01:11:28;5.90;;;2.80;;
62037;SDS011;47991;42.974;12.082;2022-12-18T01:13:55;7.50;;;2.50;;
62037;SDS011;47991;42.974;12.082;2022-12-18T01:16:24;8.60;;;2.60;;
62037;SDS011;47991;42.974;12.082;2022-12-18T01:18:52;7.20;;;2.30;;
62037;SDS011;47991;42.974;12.082;2022-12-18T01:21:21;9.80;;;3.60;;
62037;SDS011;47991;42.974;12.082;2022-12-18T01:23:51;7.60;;;3.20;;
62037;SDS011;47991;42.974;12.082;2022-12-18T01:26:24;10.00;;;3.80;;
62037;SDS011;47991;42.974;12.082;2022-12-18T01:28:54;10.50;;;4.90;;
62037;SDS011;47991;42.974;12.082;2022-12-18T01:33:52;15.50;;;6.80;;
62037;SDS011;47991;42.974;12.082;2022-12-18T01:36:24;15.70;;;6.40;;
62037;SDS011;47991;42.974;12.082;2022-12-18T01:38:54;12.60;;;5.50;;
62037;SDS011;47991;42.974;12.082;2022-12-18T01:41:23;13.10;;;6.30;;
62037;SDS011;47991;42.974;12.082;2022-12-18T01:43:54;14.40;;;6.80;;
62037;SDS011;47991;42.974;12.082;2022-12-18T01:46:25;14.20;;;7.60;;
62037;SDS011;47991;42.974;12.082;2022-12-18T01:48:57;12.90;;;6.30;;
62037;SDS011;47991;42.974;12.082;2022-12-18T01:51:27;11.50;;;6.80;;
62037;SDS011;47991;42.974;12.082;2022-12-18T01:53:58;13.10;;;7.60;;
62037;SDS011;47991;42.974;12.082;2022-12-18T01:56:26;12.80;;;7.60;;
62037;SDS011;47991;42.974;12.082;2022-12-18T01:59:06;11.00;;;6.00;;
62037;SDS011;47991;42.974;12.082;2022-12-18T02:01:37;13.10;;;5.80;;
62037;SDS011;47991;42.974;12.082;2022-12-18T02:04:21;9.70;;;5.40;;
62037;SDS011;47991;42.974;12.082;2022-12-18T02:06:52;16.00;;;5.60;;
62037;SDS011;47991;42.974;12.082;2022-12-18T02:09:35;12.00;;;6.10;;
62037;SDS011;47991;42.974;12.082;2022-12-18T02:15:07;13.70;;;7.60;;
62037;SDS011;47991;42.974;12.082;2022-12-18T02:17:49;11.60;;;6.90;;
62037;SDS011;47991;42.974;12.082;2022-12-18T02:20:24;14.00;;;7.80;;
62037;SDS011;47991;42.974;12.082;2022-12-18T02:28:35;12.70;;;6.90;;
62037;SDS011;47991;42.974;12.082;2022-12-18T02:31:10;13.20;;;6.80;;
62037;SDS011;47991;42.974;12.082;2022-12-18T02:33:43;12.30;;;6.60;;
62037;SDS011;47991;42.974;12.082;2022-12-18T02:36:13;12.20;;;6.70;;
62037;SDS011;47991;42.974;12.082;2022-12-18T02:38:44;9.00;;;5.60;;
62037;SDS011;47991;42.974;12.082;2022-12-18T02:41:14;11.90;;;5.40;;
62037;SDS011;47991;42.974;12.082;2022-12-18T02:43:48;10.40;;;5.40;;
62037;SDS011;47991;42.974;12.082;2022-12-18T02:52:05;11.50;;;4.40;;
62037;SDS011;47991;42.974;12.082;2022-12-18T02:59:47;11.40;;;5.70;;
62037;SDS011;47991;42.974;12.082;2022-12-18T03:05:37;10.90;;;4.90;;
62037;SDS011;47991;42.974;12.082;2022-12-18T03:08:30;10.70;;;5.50;;
62037;SDS011;47991;42.974;12.082;2022-12-18T03:11:13;10.40;;;4.50;;
62037;SDS011;47991;42.974;12.082;2022-12-18T03:13:52;8.70;;;5.40;;
62037;SDS011;47991;42.974;12.082;2022-12-18T03:16:25;12.10;;;5.80;;
62037;SDS011;47991;42.974;12.082;2022-12-18T03:18:58;10.90;;;5.40;;
62037;SDS011;47991;42.974;12.082;2022-12-18T03:21:33;12.70;;;5.90;;
62037;SDS011;47991;42.974;12.082;2022-12-18T03:24:09;10.20;;;5.50;;
62037;SDS011;47991;42.974;12.082;2022-12-18T03:26:41;12.30;;;5.50;;
62037;SDS011;47991;42.974;12.082;2022-12-18T03:29:29;10.50;;;5.20;;
62037;SDS011;47991;42.974;12.082;2022-12-18T03:32:02;9.60;;;5.20;;
62037;SDS011;47991;42.974;12.082;2022-12-18T03:34:35;10.10;;;5.20;;
62037;SDS011;47991;42.974;12.082;2022-12-18T03:37:08;9.30;;;4.60;;
62037;SDS011;47991;42.974;12.082;2022-12-18T03:39:36;9.70;;;5.00;;
62037;SDS011;47991;42.974;12.082;2022-12-18T03:42:05;10.60;;;4.90;;
62037;SDS011;47991;42.974;12.082;2022-12-18T03:44:54;9.10;;;4.90;;
62037;SDS011;47991;42.974;12.082;2022-12-18T03:48:13;7.60;;;4.50;;
62037;SDS011;47991;42.974;12.082;2022-12-18T03:55:49;9.10;;;4.90;;
62037;SDS011;47991;42.974;12.082;2022-12-18T03:58:21;10.40;;;4.40;;
62037;SDS011;47991;42.974;12.082;2022-12-18T04:00:58;8.70;;;4.90;;
62037;SDS011;47991;42.974;12.082;2022-12-18T04:03:29;16.10;;;5.20;;
62037;SDS011;47991;42.974;12.082;2022-12-18T04:06:02;9.40;;;5.20;;
62037;SDS011;47991;42.974;12.082;2022-12-18T04:11:05;10.60;;;5.50;;
62037;SDS011;47991;42.974;12.082;2022-12-18T04:13:35;12.00;;;6.80;;
62037;SDS011;47991;42.974;12.082;2022-12-18T04:16:11;12.90;;;6.00;;
62037;SDS011;47991;42.974;12.082;2022-12-18T04:18:41;9.20;;;5.40;;
62037;SDS011;47991;42.974;12.082;2022-12-18T04:21:09;11.30;;;6.30;;
62037;SDS011;47991;42.974;12.082;2022-12-18T04:23:38;9.60;;;5.00;;
62037;SDS011;47991;42.974;12.082;2022-12-18T04:26:07;11.70;;;5.80;;
62037;SDS011;47991;42.974;12.082;2022-12-18T04:29:02;10.70;;;5.00;;
62037;SDS011;47991;42.974;12.082;2022-12-18T04:31:30;10.40;;;4.80;;
62037;SDS011;47991;42.974;12.082;2022-12-18T04:33:58;8.50;;;5.00;;
62037;SDS011;47991;42.974;12.082;2022-12-18T04:36:26;7.90;;;4.50;;
62037;SDS011;47991;42.974;12.082;2022-12-18T04:38:54;11.00;;;4.70;;
62037;SDS011;47991;42.974;12.082;2022-12-18T04:41:22;10.50;;;4.40;;
62037;SDS011;47991;42.974;12.082;2022-12-18T04:43:51;10.40;;;4.60;;
62037;SDS011;47991;42.974;12.082;2022-12-18T04:46:19;9.00;;;4.20;;
62037;SDS011;47991;42.974;12.082;2022-12-18T04:48:47;9.70;;;4.90;;
62037;SDS011;47991;42.974;12.082;2022-12-18T04:51:15;8.90;;;4.30;;
62037;SDS011;47991;42.974;12.082;2022-12-18T04:53:43;7.80;;;4.50;;
62037;SDS011;47991;42.974;12.082;2022-12-18T04:56:11;8.50;;;4.40;;
62037;SDS011;47991;42.974;12.082;2022-12-18T04:58:41;8.20;;;4.50;;
62037;SDS011;47991;42.974;12.082;2022-12-18T05:01:11;9.40;;;5.60;;
62037;SDS011;47991;42.974;12.082;2022-12-18T05:03:39;9.40;;;4.90;;
62037;SDS011;47991;42.974;12.082;2022-12-18T05:06:08;9.90;;;4.20;;
62037;SDS011;47991;42.974;12.082;2022-12-18T05:08:36;7.80;;;4.30;;
62037;SDS011;47991;42.974;12.082;2022-12-18T05:11:08;8.30;;;4.90;;
62037;SDS011;47991;42.974;12.082;2022-12-18T05:13:39;10.20;;;4.70;;
62037;SDS011;47991;42.974;12.082;2022-12-18T05:16:06;8.30;;;4.60;;
62037;SDS011;47991;42.974;12.082;2022-12-18T05:18:34;9.00;;;4.30;;
62037;SDS011;47991;42.974;12.082;2022-12-18T05:21:02;9.70;;;4.80;;
62037;SDS011;47991;42.974;12.082;2022-12-18T05:23:31;10.20;;;5.40;;
62037;SDS011;47991;42.974;12.082;2022-12-18T05:26:02;8.80;;;5.10;;
62037;SDS011;47991;42.974;12.082;2022-12-18T05:28:33;11.90;;;5.30;;
62037;SDS011;47991;42.974;12.082;2022-12-18T05:31:02;9.60;;;4.00;;
62037;SDS011;47991;42.974;12.082;2022-12-18T05:33:32;9.20;;;4.40;;
62037;SDS011;47991;42.974;12.082;2022-12-18T05:36:01;9.00;;;4.00;;
62037;SDS011;47991;42.974;12.082;2022-12-18T05:38:31;8.60;;;4.20;;
62037;SDS011;47991;42.974;12.082;2022-12-18T05:41:00;13.90;;;6.50;;
62037;SDS011;47991;42.974;12.082;2022-12-18T05:43:27;8.70;;;4.40;;
62037;SDS011;47991;42.974;12.082;2022-12-18T05:45:56;11.40;;;4.30;;
62037;SDS011;47991;42.974;12.082;2022-12-18T05:48:24;8.40;;;4.40;;
62037;SDS011;47991;42.974;12.082;2022-12-18T05:50:52;7.40;;;3.90;;
62037;SDS011;47991;42.974;12.082;2022-12-18T05:53:20;8.50;;;4.80;;
62037;SDS011;47991;42.974;12.082;2022-12-18T05:55:48;7.80;;;4.20;;
62037;SDS011;47991;42.974;12.082;2022-12-18T05:58:16;8.20;;;4.30;;
62037;SDS011;47991;42.974;12.082;2022-12-18T06:00:45;7.50;;;4.20;;
62037;SDS011;47991;42.974;12.082;2022-12-18T06:03:13;8.20;;;3.50;;
62037;SDS011;47991;42.974;12.082;2022-12-18T06:05:42;8.30;;;3.30;;
62037;SDS011;47991;42.974;12.082;2022-12-18T06:08:12;7.80;;;3.70;;
62037;SDS011;47991;42.974;12.082;2022-12-18T06:10:41;6.50;;;3.00;;
62037;SDS011;47991;42.974;12.082;2022-12-18T06:13:08;7.90;;;3.10;;
62037;SDS011;47991;42.974;12.082;2022-12-18T06:15:36;9.30;;;3.50;;
62037;SDS011;47991;42.974;12.082;2022-12-18T06:18:05;8.00;;;3.30;;
62037;SDS011;47991;42.974;12.082;2022-12-18T06:20:33;7.40;;;4.20;;
62037;SDS011;47991;42.974;12.082;2022-12-18T06:23:03;9.80;;;4.30;;
62037;SDS011;47991;42.974;12.082;2022-12-18T06:25:32;7.60;;;3.60;;
62037;SDS011;47991;42.974;12.082;2022-12-18T06:27:59;6.10;;;3.20;;
62037;SDS011;47991;42.974;12.082;2022-12-18T06:30:27;8.60;;;3.40;;
62037;SDS011;47991;42.974;12.082;2022-12-18T06:32:55;8.00;;;3.50;;
62037;SDS011;47991;42.974;12.082;2022-12-18T06:35:23;8.80;;;3.30;;
62037;SDS011;47991;42.974;12.082;2022-12-18T06:37:51;8.80;;;3.50;;
62037;SDS011;47991;42.974;12.082;2022-12-18T06:40:19;7.90;;;3.60;;
62037;SDS011;47991;42.974;12.082;2022-12-18T06:42:47;7.70;;;3.40;;
62037;SDS011;47991;42.974;12.082;2022-12-18T06:45:14;5.10;;;2.90;;
62037;SDS011;47991;42.974;12.082;2022-12-18T06:47:43;8.30;;;2.90;;
62037;SDS011;47991;42.974;12.082;2022-12-18T06:50:11;6.90;;;2.90;;
62037;SDS011;47991;42.974;12.082;2022-12-18T06:52:40;6.40;;;3.30;;
62037;SDS011;47991;42.974;12.082;2022-12-18T06:55:08;9.40;;;3.80;;
62037;SDS011;47991;42.974;12.082;2022-12-18T06:57:36;6.90;;;3.30;;
62037;SDS011;47991;42.974;12.082;2022-12-18T07:00:05;8.30;;;3.60;;
62037;SDS011;47991;42.974;12.082;2022-12-18T07:02:34;6.70;;;3.10;;
62037;SDS011;47991;42.974;12.082;2022-12-18T07:05:02;10.40;;;3.40;;
62037;SDS011;47991;42.974;12.082;2022-12-18T07:07:31;7.60;;;3.40;;
62037;SDS011;47991;42.974;12.082;2022-12-18T07:09:58;6.60;;;3.30;;
62037;SDS011;47991;42.974;12.082;2022-12-18T07:12:29;7.80;;;3.40;;
62037;SDS011;47991;42.974;12.082;2022-12-18T07:14:56;6.70;;;3.50;;
62037;SDS011;47991;42.974;12.082;2022-12-18T07:17:24;10.40;;;4.90;;
62037;SDS011;47991;42.974;12.082;2022-12-18T07:19:51;7.30;;;3.70;;
62037;SDS011;47991;42.974;12.082;2022-12-18T07:22:19;7.00;;;3.00;;
62037;SDS011;47991;42.974;12.082;2022-12-18T07:24:46;10.90;;;3.60;;
62037;SDS011;47991;42.974;12.082;2022-12-18T07:27:14;8.50;;;3.20;;
62037;SDS011;47991;42.974;12.082;2022-12-18T07:29:41;7.10;;;3.40;;
62037;SDS011;47991;42.974;12.082;2022-12-18T07:32:08;10.20;;;3.40;;
62037;SDS011;47991;42.974;12.082;2022-12-18T07:34:36;5.90;;;3.10;;
62037;SDS011;47991;42.974;12.082;2022-12-18T07:37:03;7.90;;;2.90;;
62037;SDS011;47991;42.974;12.082;2022-12-18T07:39:32;8.20;;;2.60;;
62037;SDS011;47991;42.974;12.082;2022-12-18T07:42:00;4.70;;;2.50;;
62037;SDS011;47991;42.974;12.082;2022-12-18T07:44:48;6.20;;;2.90;;
62037;SDS011;47991;42.974;12.082;2022-12-18T07:47:15;5.70;;;2.70;;
62037;SDS011;47991;42.974;12.082;2022-12-18T07:49:44;8.20;;;2.70;;
62037;SDS011;47991;42.974;12.082;2022-12-18T07:52:12;7.50;;;2.70;;
62037;SDS011;47991;42.974;12.082;2022-12-18T07:54:39;5.80;;;2.90;;
62037;SDS011;47991;42.974;12.082;2022-12-18T07:57:11;9.20;;;3.80;;
62037;SDS011;47991;42.974;12.082;2022-12-18T07:59:39;5.90;;;2.80;;
62037;SDS011;47991;42.974;12.082;2022-12-18T08:02:06;6.50;;;2.90;;
62037;SDS011;47991;42.974;12.082;2022-12-18T08:04:34;8.30;;;5.60;;
62037;SDS011;47991;42.974;12.082;2022-12-18T08:07:01;19.50;;;13.00;;
62037;SDS011;47991;42.974;12.082;2022-12-18T08:09:28;9.80;;;5.90;;
62037;SDS011;47991;42.974;12.082;2022-12-18T08:11:56;8.20;;;3.40;;
62037;SDS011;47991;42.974;12.082;2022-12-18T08:14:23;7.50;;;3.90;;
62037;SDS011;47991;42.974;12.082;2022-12-18T08:16:51;6.50;;;2.90;;
62037;SDS011;47991;42.974;12.082;2022-12-18T08:19:19;10.60;;;3.20;;
62037;SDS011;47991;42.974;12.082;2022-12-18T08:21:47;10.10;;;3.20;;
62037;SDS011;47991;42.974;12.082;2022-12-18T08:24:14;6.40;;;2.70;;
62037;SDS011;47991;42.974;12.082;2022-12-18T08:26:42;7.90;;;3.50;;
62037;SDS011;47991;42.974;12.082;2022-12-18T08:29:09;7.60;;;3.90;;
62037;SDS011;47991;42.974;12.082;2022-12-18T08:31:37;14.30;;;7.60;;
62037;SDS011;47991;42.974;12.082;2022-12-18T08:34:05;12.10;;;7.70;;
62037;SDS011;47991;42.974;12.082;2022-12-18T08:36:32;10.70;;;5.30;;
62037;SDS011;47991;42.974;12.082;2022-12-18T08:39:01;9.50;;;4.70;;
62037;SDS011;47991;42.974;12.082;2022-12-18T08:41:28;8.80;;;4.40;;
62037;SDS011;47991;42.974;12.082;2022-12-18T08:43:57;7.60;;;3.50;;
62037;SDS011;47991;42.974;12.082;2022-12-18T08:46:44;7.30;;;3.00;;
62037;SDS011;47991;42.974;12.082;2022-12-18T08:49:11;5.10;;;2.60;;
62037;SDS011;47991;42.974;12.082;2022-12-18T08:51:39;7.40;;;2.50;;
62037;SDS011;47991;42.974;12.082;2022-12-18T08:54:07;7.90;;;3.50;;
62037;SDS011;47991;42.974;12.082;2022-12-18T08:59:06;6.20;;;2.70;;
62037;SDS011;47991;42.974;12.082;2022-12-18T09:01:33;7.10;;;3.10;;
62037;SDS011;47991;42.974;12.082;2022-12-18T09:04:00;7.60;;;2.60;;
62037;SDS011;47991;42.974;12.082;2022-12-18T09:06:28;6.80;;;3.00;;
62037;SDS011;47991;42.974;12.082;2022-12-18T09:08:56;5.00;;;2.10;;
62037;SDS011;47991;42.974;12.082;2022-12-18T09:11:25;6.90;;;2.70;;
62037;SDS011;47991;42.974;12.082;2022-12-18T09:13:54;5.80;;;3.00;;
62037;SDS011;47991;42.974;12.082;2022-12-18T09:16:23;6.10;;;2.70;;
62037;SDS011;47991;42.974;12.082;2022-12-18T09:18:51;5.00;;;2.30;;
62037;SDS011;47991;42.974;12.082;2022-12-18T09:21:27;7.50;;;2.50;;
62037;SDS011;47991;42.974;12.082;2022-12-18T09:23:57;5.10;;;2.20;;
62037;SDS011;47991;42.974;12.082;2022-12-18T09:26:25;6.10;;;2.60;;
62037;SDS011;47991;42.974;12.082;2022-12-18T09:28:53;6.00;;;2.60;;
62037;SDS011;47991;42.974;12.082;2022-12-18T09:31:21;4.80;;;2.40;;
62037;SDS011;47991;42.974;12.082;2022-12-18T09:33:50;6.30;;;2.70;;
62037;SDS011;47991;42.974;12.082;2022-12-18T09:36:18;5.00;;;2.20;;
62037;SDS011;47991;42.974;12.082;2022-12-18T09:38:46;6.10;;;2.50;;
62037;SDS011;47991;42.974;12.082;2022-12-18T09:44:05;5.00;;;2.30;;
62037;SDS011;47991;42.974;12.082;2022-12-18T09:46:58;5.20;;;2.50;;
62037;SDS011;47991;42.974;12.082;2022-12-18T09:49:40;5.00;;;2.40;;
62037;SDS011;47991;42.974;12.082;2022-12-18T09:55:50;5.80;;;2.70;;
62037;SDS011;47991;42.974;12.082;2022-12-18T09:58:02;3.70;;;2.10;;
62037;SDS011;47991;42.974;12.082;2022-12-18T10:00:38;4.60;;;2.30;;
62037;SDS011;47991;42.974;12.082;2022-12-18T10:03:10;5.70;;;2.60;;
62037;SDS011;47991;42.974;12.082;2022-12-18T10:05:52;4.60;;;2.80;;
62037;SDS011;47991;42.974;12.082;2022-12-18T10:11:01;6.20;;;3.20;;
62037;SDS011;47991;42.974;12.082;2022-12-18T10:13:46;5.30;;;2.80;;
62037;SDS011;47991;42.974;12.082;2022-12-18T10:30:14;6.60;;;3.20;;
62037;SDS011;47991;42.974;12.082;2022-12-18T10:32:43;4.90;;;2.60;;
62037;SDS011;47991;42.974;12.082;2022-12-18T10:35:21;6.00;;;3.00;;
62037;SDS011;47991;42.974;12.082;2022-12-18T10:38:01;6.70;;;2.40;;
62037;SDS011;47991;42.974;12.082;2022-12-18T10:40:30;5.90;;;2.90;;
62037;SDS011;47991;42.974;12.082;2022-12-18T10:43:20;5.20;;;2.70;;
62037;SDS011;47991;42.974;12.082;2022-12-18T10:46:34;7.90;;;3.60;;
62037;SDS011;47991;42.974;12.082;2022-12-18T10:48:37;5.50;;;3.00;;
62037;SDS011;47991;42.974;12.082;2022-12-18T10:51:24;6.90;;;3.10;;
62037;SDS011;47991;42.974;12.082;2022-12-18T11:01:26;10.90;;;3.80;;
62037;SDS011;47991;42.974;12.082;2022-12-18T11:04:04;5.90;;;2.80;;
62037;SDS011;47991;42.974;12.082;2022-12-18T11:06:36;6.00;;;2.80;;
62037;SDS011;47991;42.974;12.082;2022-12-18T11:09:30;9.40;;;3.30;;
62037;SDS011;47991;42.974;12.082;2022-12-18T11:12:00;6.80;;;3.20;;
62037;SDS011;47991;42.974;12.082;2022-12-18T11:14:31;5.80;;;2.90;;
62037;SDS011;47991;42.974;12.082;2022-12-18T11:17:00;6.60;;;3.80;;
62037;SDS011;47991;42.974;12.082;2022-12-18T11:22:01;8.00;;;3.60;;
62037;SDS011;47991;42.974;12.082;2022-12-18T11:24:49;5.90;;;3.20;;
62037;SDS011;47991;42.974;12.082;2022-12-18T11:27:21;7.50;;;3.20;;
62037;SDS011;47991;42.974;12.082;2022-12-18T11:29:50;6.70;;;3.20;;
62037;SDS011;47991;42.974;12.082;2022-12-18T11:37:40;5.70;;;2.80;;
62037;SDS011;47991;42.974;12.082;2022-12-18T11:40:13;6.30;;;2.90;;
62037;SDS011;47991;42.974;12.082;2022-12-18T11:42:48;7.40;;;2.70;;
62037;SDS011;47991;42.974;12.082;2022-12-18T11:45:55;6.90;;;2.70;;
62037;SDS011;47991;42.974;12.082;2022-12-18T11:48:45;6.70;;;2.90;;
62037;SDS011;47991;42.974;12.082;2022-12-18T11:54:37;4.80;;;2.60;;
62037;SDS011;47991;42.974;12.082;2022-12-18T11:57:50;5.40;;;2.40;;
62037;SDS011;47991;42.974;12.082;2022-12-18T12:00:20;8.40;;;2.80;;
62037;SDS011;47991;42.974;12.082;2022-12-18T12:09:01;8.30;;;2.90;;
62037;SDS011;47991;42.974;12.082;2022-12-18T12:12:38;6.40;;;2.80;;
62037;SDS011;47991;42.974;12.082;2022-12-18T12:17:52;5.70;;;2.50;;
62037;SDS011;47991;42.974;12.082;2022-12-18T12:23:17;5.40;;;2.40;;
62037;SDS011;47991;42.974;12.082;2022-12-18T12:26:36;6.30;;;3.20;;
62037;SDS011;47991;42.974;12.082;2022-12-18T12:29:22;5.10;;;2.60;;
62037;SDS011;47991;42.974;12.082;2022-12-18T12:32:07;4.50;;;2.30;;
62037;SDS011;47991;42.974;12.082;2022-12-18T12:35:05;5.10;;;2.30;;
62037;SDS011;47991;42.974;12.082;2022-12-18T12:40:47;6.20;;;2.60;;
62037;SDS011;47991;42.974;12.082;2022-12-18T12:43:21;6.60;;;2.50;;
62037;SDS011;47991;42.974;12.082;2022-12-18T12:45:55;6.40;;;2.60;;
62037;SDS011;47991;42.974;12.082;2022-12-18T12:51:21;6.20;;;2.20;;
62037;SDS011;47991;42.974;12.082;2022-12-18T12:54:01;4.10;;;2.30;;
62037;SDS011;47991;42.974;12.082;2022-12-18T13:01:58;3.60;;;2.20;;
62037;SDS011;47991;42.974;12.082;2022-12-18T13:12:53;5.50;;;2.30;;
62037;SDS011;47991;42.974;12.082;2022-12-18T13:15:31;5.80;;;2.40;;
62037;SDS011;47991;42.974;12.082;2022-12-18T13:18:04;5.30;;;2.20;;
62037;SDS011;47991;42.974;12.082;2022-12-18T13:31:01;5.20;;;1.70;;
62037;SDS011;47991;42.974;12.082;2022-12-18T13:36:09;4.80;;;2.00;;
62037;SDS011;47991;42.974;12.082;2022-12-18T13:38:43;5.00;;;1.90;;
62037;SDS011;47991;42.974;12.082;2022-12-18T13:43:42;4.60;;;2.10;;
62037;SDS011;47991;42.974;12.082;2022-12-18T13:51:42;5.20;;;2.10;;
62037;SDS011;47991;42.974;12.082;2022-12-18T13:54:24;4.30;;;1.90;;
62037;SDS011;47991;42.974;12.082;2022-12-18T13:57:03;3.40;;;2.10;;
62037;SDS011;47991;42.974;12.082;2022-12-18T13:59:34;4.20;;;2.00;;
62037;SDS011;47991;42.974;12.082;2022-12-18T14:02:16;4.10;;;2.00;;
62037;SDS011;47991;42.974;12.082;2022-12-18T14:04:49;4.30;;;1.90;;
62037;SDS011;47991;42.974;12.082;2022-12-18T14:07:18;4.30;;;2.00;;
62037;SDS011;47991;42.974;12.082;2022-12-18T14:09:55;4.20;;;1.80;;
62037;SDS011;47991;42.974;12.082;2022-12-18T14:12:27;5.20;;;1.90;;
62037;SDS011;47991;42.974;12.082;2022-12-18T14:17:53;5.20;;;2.70;;
62037;SDS011;47991;42.974;12.082;2022-12-18T14:20:28;5.50;;;1.90;;
62037;SDS011;47991;42.974;12.082;2022-12-18T14:22:58;2.90;;;1.70;;
62037;SDS011;47991;42.974;12.082;2022-12-18T14:25:27;3.50;;;1.80;;
62037;SDS011;47991;42.974;12.082;2022-12-18T14:30:36;3.80;;;1.80;;
62037;SDS011;47991;42.974;12.082;2022-12-18T14:33:16;3.10;;;1.80;;
62037;SDS011;47991;42.974;12.082;2022-12-18T14:35:59;4.90;;;1.80;;
62037;SDS011;47991;42.974;12.082;2022-12-18T14:38:41;4.30;;;1.90;;
62037;SDS011;47991;42.974;12.082;2022-12-18T14:41:13;4.40;;;1.90;;
62037;SDS011;47991;42.974;12.082;2022-12-18T14:43:43;5.70;;;1.90;;
62037;SDS011;47991;42.974;12.082;2022-12-18T14:46:30;4.80;;;1.90;;
62037;SDS011;47991;42.974;12.082;2022-12-18T14:49:00;3.90;;;1.60;;
62037;SDS011;47991;42.974;12.082;2022-12-18T14:51:33;5.10;;;1.90;;
62037;SDS011;47991;42.974;12.082;2022-12-18T14:56:59;3.90;;;1.80;;
62037;SDS011;47991;42.974;12.082;2022-12-18T14:59:55;3.40;;;1.80;;
62037;SDS011;47991;42.974;12.082;2022-12-18T15:02:34;5.00;;;1.90;;
62037;SDS011;47991;42.974;12.082;2022-12-18T15:07:43;3.30;;;1.60;;
62037;SDS011;47991;42.974;12.082;2022-12-18T15:10:33;19.30;;;14.90;;
62037;SDS011;47991;42.974;12.082;2022-12-18T15:18:01;5.90;;;3.30;;
62037;SDS011;47991;42.974;12.082;2022-12-18T15:20:31;3.10;;;2.10;;
62037;SDS011;47991;42.974;12.082;2022-12-18T15:23:45;3.40;;;1.60;;
62037;SDS011;47991;42.974;12.082;2022-12-18T15:26:20;4.00;;;1.80;;
62037;SDS011;47991;42.974;12.082;2022-12-18T15:36:26;4.80;;;1.80;;
62037;SDS011;47991;42.974;12.082;2022-12-18T15:38:54;3.90;;;1.70;;
62037;SDS011;47991;42.974;12.082;2022-12-18T15:41:27;3.40;;;1.60;;
62037;SDS011;47991;42.974;12.082;2022-12-18T15:43:54;4.60;;;1.60;;
62037;SDS011;47991;42.974;12.082;2022-12-18T15:46:23;2.60;;;1.40;;
62037;SDS011;47991;42.974;12.082;2022-12-18T15:48:58;3.90;;;1.80;;
62037;SDS011;47991;42.974;12.082;2022-12-18T15:53:55;4.90;;;1.90;;
62037;SDS011;47991;42.974;12.082;2022-12-18T15:56:25;5.00;;;2.10;;
62037;SDS011;47991;42.974;12.082;2022-12-18T15:59:15;5.20;;;2.10;;
62037;SDS011;47991;42.974;12.082;2022-12-18T16:01:45;5.80;;;2.30;;
62037;SDS011;47991;42.974;12.082;2022-12-18T16:04:15;4.70;;;1.90;;
62037;SDS011;47991;42.974;12.082;2022-12-18T16:06:47;5.90;;;1.80;;
62037;SDS011;47991;42.974;12.082;2022-12-18T16:09:15;3.90;;;1.50;;
62037;SDS011;47991;42.974;12.082;2022-12-18T16:11:43;3.70;;;1.70;;
62037;SDS011;47991;42.974;12.082;2022-12-18T16:16:55;3.90;;;1.70;;
62037;SDS011;47991;42.974;12.082;2022-12-18T16:19:31;3.90;;;1.80;;
62037;SDS011;47991;42.974;12.082;2022-12-18T16:21:59;4.50;;;2.00;;
62037;SDS011;47991;42.974;12.082;2022-12-18T16:24:27;8.00;;;2.30;;
62037;SDS011;47991;42.974;12.082;2022-12-18T16:26:57;4.40;;;1.60;;
62037;SDS011;47991;42.974;12.082;2022-12-18T16:29:26;3.80;;;1.90;;
62037;SDS011;47991;42.974;12.082;2022-12-18T16:31:56;5.30;;;1.80;;
62037;SDS011;47991;42.974;12.082;2022-12-18T16:34:26;4.50;;;1.90;;
62037;SDS011;47991;42.974;12.082;2022-12-18T16:36:58;4.20;;;1.80;;
62037;SDS011;47991;42.974;12.082;2022-12-18T16:39:28;4.20;;;1.90;;
62037;SDS011;47991;42.974;12.082;2022-12-18T16:41:57;3.60;;;1.80;;
62037;SDS011;47991;42.974;12.082;2022-12-18T16:44:25;3.40;;;1.70;;
62037;SDS011;47991;42.974;12.082;2022-12-18T16:46:53;3.80;;;2.00;;
62037;SDS011;47991;42.974;12.082;2022-12-18T16:49:20;4.20;;;1.70;;
62037;SDS011;47991;42.974;12.082;2022-12-18T16:51:48;5.90;;;2.10;;
62037;SDS011;47991;42.974;12.082;2022-12-18T16:54:16;5.40;;;1.90;;
62037;SDS011;47991;42.974;12.082;2022-12-18T16:56:45;5.20;;;2.30;;
62037;SDS011;47991;42.974;12.082;2022-12-18T16:59:15;5.80;;;2.30;;
62037;SDS011;47991;42.974;12.082;2022-12-18T17:01:43;4.50;;;2.10;;
62037;SDS011;47991;42.974;12.082;2022-12-18T17:04:10;5.70;;;2.10;;
62037;SDS011;47991;42.974;12.082;2022-12-18T17:06:39;3.70;;;1.80;;
62037;SDS011;47991;42.974;12.082;2022-12-18T17:09:10;8.00;;;2.30;;
62037;SDS011;47991;42.974;12.082;2022-12-18T17:11:41;3.20;;;1.50;;
62037;SDS011;47991;42.974;12.082;2022-12-18T17:14:11;4.60;;;2.00;;
62037;SDS011;47991;42.974;12.082;2022-12-18T17:16:41;3.10;;;1.70;;
62037;SDS011;47991;42.974;12.082;2022-12-18T17:19:10;5.10;;;2.20;;
62037;SDS011;47991;42.974;12.082;2022-12-18T17:21:38;5.10;;;2.30;;
62037;SDS011;47991;42.974;12.082;2022-12-18T17:24:06;3.70;;;2.00;;
62037;SDS011;47991;42.974;12.082;2022-12-18T17:26:33;5.00;;;1.90;;
62037;SDS011;47991;42.974;12.082;2022-12-18T17:29:01;6.50;;;2.30;;
62037;SDS011;47991;42.974;12.082;2022-12-18T17:31:29;5.70;;;1.80;;
62037;SDS011;47991;42.974;12.082;2022-12-18T17:33:57;4.70;;;2.20;;
62037;SDS011;47991;42.974;12.082;2022-12-18T17:36:27;5.30;;;2.50;;
62037;SDS011;47991;42.974;12.082;2022-12-18T17:38:59;5.60;;;2.00;;